Time;durP1;ratioP1;P1;durP2;ratioP2;P2;SDS_P1;SDS_P2;PMS_P1;PMS_P2;Temp;Humidity;BMP_temperature;BMP_pressure;BME280_temperature;BME280_humidity;BME280_pressure;Samples;Min_cycle;Max_cycle;Signal;HPM_P1;HPM_P2
2021/11/17 02:26:39;;;;;;;;;;;;;;;;;;5055931;28;19913;-77
2021/11/17 02:29:07;;;;;;;;;;;;;;;;;;5055977;28;20338;-77
2021/11/17 02:31:39;;;;;;;;;;;;;;;;;;5055742;28;20370;-77
2021/11/17 02:34:07;;;;;;;;;;;;;;;;;;5055382;28;19913;-77
2021/11/17 02:36:51;;;;;;;;;;;;;;;;;;5055667;28;19940;-77
2021/11/17 02:39:22;;;;;;;;;;;;;;;;;;5035901;28;19940;-77
2021/11/17 02:42:12;;;;;;;;;;;;;;;;;;5035935;28;20321;-77
2021/11/17 02:44:44;;;;;;;;;;;;;;;;;;5035422;28;19916;-77
2021/11/17 02:47:16;;;;;;;;;;;;;;;;;;5035686;28;19923;-77
2021/11/17 02:50:07;;;;;;;;;;;;;;;;;;5035525;28;19920;-78
2021/11/17 02:52:32;;;;;;;;;;;;;;;;;;5035815;28;19925;-77
2021/11/17 02:55:13;;;;;;;;;;;;;;;;;;5035394;28;19923;-77
2021/11/17 02:57:44;;;;;;;;;;;;;;;;;;5035140;28;19917;-77
2021/11/17 03:00:19;;;;;;;;;;;;;;;;;;5033963;28;19976;-77
2021/11/17 03:02:57;;;;;;;;;;;;;;;;;;5034141;28;20003;-77
2021/11/17 03:05:37;;;;;;;;;;;;;;;;;;5034777;28;19920;-78
2021/11/17 03:08:10;;;;;;;;;;;;;;;;;;5045592;28;19912;-78
2021/11/17 03:10:35;;;;;;;;;;;;;;;;;;5035267;28;20003;-77
2021/11/17 03:13:11;;;;;;;;;;;;;;;;;;5035286;28;19913;-77
2021/11/17 03:15:42;;;;;;;;;;;;;;;;;;5036148;28;19920;-77
2021/11/17 03:18:10;;;;;;;;;;;;;;;;;;5034988;28;20015;-77
2021/11/17 03:20:48;;;;;;;;;;;;;;;;;;5034344;28;19913;-77
2021/11/17 03:23:26;;;;;;;;;;;;;;;;;;5034745;28;19936;-77
2021/11/17 03:25:54;;;;;;;;;;;;;;;;;;5034657;28;19913;-77
2021/11/17 03:28:20;;;;;;;;;;;;;;;;;;5034867;28;20060;-77
2021/11/17 03:30:57;;;;;;;;;;;;;;;;;;5033900;28;19971;-77
2021/11/17 03:33:38;;;;;;;;;;;;;;;;;;5034493;28;19979;-78
2021/11/17 03:36:23;;;;;;;;;;;;;;;;;;5033587;28;19917;-78
2021/11/17 03:38:48;;;;;;;;;;;;;;;;;;5033568;28;20359;-76
2021/11/17 03:41:20;;;;;;;;;;;;;;;;;;5034889;28;19913;-78
2021/11/17 03:43:57;;;;;;;;;;;;;;;;;;5032706;28;20334;-76
2021/11/17 03:46:25;;;;;;;;;;;;;;;;;;5034462;28;19917;-77
2021/11/17 03:49:09;;;;;;;;;;;;;;;;;;5034682;28;19917;-77
2021/11/17 03:51:41;;;;;;;;;;;;;;;;;;5033423;28;19967;-77
2021/11/17 03:54:16;;;;;;;;;;;;;;;;;;5034635;28;19920;-78
2021/11/17 03:56:53;;;;;;;;;;;;;;;;;;5033050;28;19917;-77
2021/11/17 03:59:31;;;;;;;;;;;;;;;;;;5034020;28;19924;-77
2021/11/17 04:02:12;;;;;;;;;;;;;;;;;;5033130;28;20450;-77
2021/11/17 04:04:41;;;;;;;;;;;;;;;;;;5016565;28;19917;-78
2021/11/17 04:07:12;;;;;;;;;;;;;;;;;;5063338;28;19982;-78
2021/11/17 04:09:38;;;;;;;;;;;;;;;;;;5074206;28;19982;-77
2021/11/17 04:12:12;;;;;;;;;;;;;;;;;;5074198;28;20028;-77
2021/11/17 04:14:43;;;;;;;;;;;;;;;;;;5074012;28;19965;-77
2021/11/17 04:17:15;;;;;;;;;;;;;;;;;;5073895;28;19924;-79
2021/11/17 04:19:55;;;;;;;;;;;;;;;;;;5071819;28;19913;-78
2021/11/17 04:22:41;;;;;;;;;;;;;;;;;;5074114;28;19957;-77
2021/11/17 04:25:12;;;;;;;;;;;;;;;;;;5073894;28;20345;-78
2021/11/17 04:27:56;;;;;;;;;;;;;;;;;;5074092;28;19963;-77
2021/11/17 04:30:27;;;;;;;;;;;;;;;;;;5074259;28;19912;-77
2021/11/17 04:33:02;;;;;;;;;;;;;;;;;;5074393;28;19960;-78
2021/11/17 04:35:36;;;;;;;;;;;;;;;;;;5074139;28;19912;-78
2021/11/17 04:38:14;;;;;;;;;;;;;;;;;;5074206;28;19916;-79
2021/11/17 04:40:43;;;;;;;;;;;;;;;;;;5072598;28;19923;-78
2021/11/17 04:43:30;;;;;;;;;;;;;;;;;;5073733;28;19916;-77
2021/11/17 04:46:08;;;;;;;;;;;;;;;;;;5073977;28;20030;-78
2021/11/17 04:48:40;;;;;;;;;;;;;;;;;;5066907;28;20396;-78
2021/11/17 04:51:31;;;;;;;;;;;;;;;;;;5052579;28;20416;-77
2021/11/17 04:54:18;;;;;;;;;;;;;;;;;;5053760;28;19912;-77
2021/11/17 04:56:56;;;;;;;;;;;;;;;;;;5056239;28;19979;-77
2021/11/17 04:59:28;;;;;;;;;;;;;;;;;;5057658;28;19916;-77
2021/11/17 05:02:13;;;;;;;;;;;;;;;;;;5057724;28;19943;-78
2021/11/17 05:04:41;;;;;;;;;;;;;;;;;;5057294;28;20286;-77
2021/11/17 05:07:12;;;;;;;;;;;;;;;;;;5057757;28;20294;-79
2021/11/17 05:09:46;;;;;;;;;;;;;;;;;;5057753;28;19970;-77
2021/11/17 05:12:21;;;;;;;;;;;;;;;;;;5056619;28;19956;-77
2021/11/17 05:14:58;;;;;;;;;;;;;;;;;;5056784;28;19912;-77
2021/11/17 05:17:32;;;;;;;;;;;;;;;;;;5057233;28;19920;-77
2021/11/17 05:20:08;;;;;;;;;;;;;;;;;;5058268;28;19954;-77
2021/11/17 05:22:33;;;;;;;;;;;;;;;;;;5056746;28;19916;-77
2021/11/17 05:25:17;;;;;;;;;;;;;;;;;;5057655;28;19978;-77
2021/11/17 05:27:51;;;;;;;;;;;;;;;;;;5057449;28;19913;-78
2021/11/17 05:30:16;;;;;;;;;;;;;;;;;;5057303;28;19913;-78
2021/11/17 05:33:00;;;;;;;;;;;;;;;;;;5057288;28;20372;-77
2021/11/17 05:35:32;;;;;;;;;;;;;;;;;;5037358;28;19912;-77
2021/11/17 05:38:00;;;;;;;;;;;;;;;;;;5036714;28;19944;-77
2021/11/17 05:40:41;;;;;;;;;;;;;;;;;;5036916;28;20382;-79
2021/11/17 05:43:10;;;;;;;;;;;;;;;;;;5035704;28;19920;-77
2021/11/17 05:45:52;;;;;;;;;;;;;;;;;;5047781;28;19919;-78
2021/11/17 05:48:29;;;;;;;;;;;;;;;;;;5056233;28;20293;-79
2021/11/17 05:51:11;;;;;;;;;;;;;;;;;;5054383;28;19977;-77
2021/11/17 05:53:54;;;;;;;;;;;;;;;;;;5051560;28;20488;-77
2021/11/17 05:56:19;;;;;;;;;;;;;;;;;;5055681;28;19962;-77
2021/11/17 05:58:51;;;;;;;;;;;;;;;;;;5056367;28;20321;-78
2021/11/17 06:01:19;;;;;;;;;;;;;;;;;;5054950;28;19919;-77
2021/11/17 06:06:24;;;;;;;;;;;;;;;;;;5056338;28;19913;-76
2021/11/17 06:08:55;;;;;;;;;;;;;;;;;;5037698;28;19916;-77
2021/11/17 06:11:23;;;;;;;;;;;;;;;;;;5056086;28;20016;-77
2021/11/17 06:13:49;;;;;;;;;;;;;;;;;;5055812;28;19913;-76
2021/11/17 06:16:14;;;;;;;;;;;;;;;;;;5055973;28;19943;-77
2021/11/17 06:18:40;;;;;;;;;;;;;;;;;;5055814;28;20298;-77
2021/11/17 06:21:06;;;;;;;;;;;;;;;;;;5056091;28;19913;-77
2021/11/17 06:23:34;;;;;;;;;;;;;;;;;;5055754;28;19912;-77
2021/11/17 06:26:00;;;;;;;;;;;;;;;;;;5056416;28;19909;-76
2021/11/17 06:28:27;;;;;;;;;;;;;;;;;;5054856;28;19923;-76
2021/11/17 06:30:53;;;;;;;;;;;;;;;;;;5055868;28;20007;-75
2021/11/17 06:33:19;;;;;;;;;;;;;;;;;;5054630;28;19913;-76
2021/11/17 06:35:44;;;;;;;;;;;;;;;;;;5055831;28;20377;-76
2021/11/17 06:38:10;;;;;;;;;;;;;;;;;;5055675;28;19946;-75
2021/11/17 06:40:37;;;;;;;;;;;;;;;;;;5055517;28;19919;-76
2021/11/17 06:43:03;;;;;;;;;;;;;;;;;;5055535;28;20331;-75
2021/11/17 06:45:37;;;;;;;;;;;;;;;;;;5055513;28;20371;-76
2021/11/17 06:48:03;;;;;;;;;;;;;;;;;;5054813;28;20070;-75
2021/11/17 06:50:29;;;;;;;;;;;;;;;;;;5055590;28;20421;-76
2021/11/17 06:52:54;;;;;;;;;;;;;;;;;;5055611;28;20023;-75
2021/11/17 06:55:19;;;;;;;;;;;;;;;;;;5055222;28;19913;-75
2021/11/17 06:57:45;;;;;;;;;;;;;;;;;;5055170;28;20397;-75
2021/11/17 07:00:15;;;;;;;;;;;;;;;;;;5055446;28;19920;-75
2021/11/17 07:02:41;;;;;;;;;;;;;;;;;;5055340;28;20367;-75
2021/11/17 07:05:06;;;;;;;;;;;;;;;;;;5055139;28;19968;-75
2021/11/17 07:07:32;;;;;;;;;;;;;;;;;;5051152;28;19999;-75
2021/11/17 07:09:57;;;;;;;;;;;;;;;;;;5054448;28;19913;-75
2021/11/17 07:12:22;;;;;;;;;;;;;;;;;;5043192;28;19959;-75
2021/11/17 07:14:48;;;;;;;;;;;;;;;;;;5034657;28;19913;-75
2021/11/17 07:17:13;;;;;;;;;;;;;;;;;;5035088;28;19913;-76
2021/11/17 07:19:39;;;;;;;;;;;;;;;;;;5034132;28;19917;-76
2021/11/17 07:22:07;;;;;;;;;;;;;;;;;;5034910;28;19912;-76
2021/11/17 07:24:33;;;;;;;;;;;;;;;;;;5034948;28;20375;-77
2021/11/17 07:26:59;;;;;;;;;;;;;;;;;;5035049;28;20095;-76
2021/11/17 07:29:25;;;;;;;;;;;;;;;;;;5035392;28;20064;-76
2021/11/17 07:31:50;;;;;;;;;;;;;;;;;;5034638;28;19920;-77
2021/11/17 07:34:16;;;;;;;;;;;;;;;;;;5033019;28;20418;-76
2021/11/17 07:36:42;;;;;;;;;;;;;;;;;;5033582;28;19923;-77
2021/11/17 07:39:13;;;;;;;;;;;;;;;;;;5044963;28;19913;-77
2021/11/17 07:41:39;;;;;;;;;;;;;;;;;;5053257;28;20369;-77
2021/11/17 07:44:04;;;;;;;;;;;;;;;;;;5053646;28;19960;-77
2021/11/17 07:46:30;;;;;;;;;;;;;;;;;;5054110;28;19919;-77
2021/11/17 07:48:57;;;;;;;;;;;;;;;;;;5053340;28;20279;-77
2021/11/17 07:51:22;;;;;;;;;;;;;;;;;;5054062;28;19920;-77
2021/11/17 07:53:47;;;;;;;;;;;;;;;;;;5054941;28;19913;-80
2021/11/17 07:56:13;;;;;;;;;;;;;;;;;;5056287;28;19923;-82
2021/11/17 07:58:40;;;;;;;;;;;;;;;;;;5056638;28;19923;-82
2021/11/17 08:01:05;;;;;;;;;;;;;;;;;;5057329;28;19920;-80
2021/11/17 08:03:32;;;;;;;;;;;;;;;;;;5058565;28;19909;-80
2021/11/17 08:05:58;;;;;;;;;;;;;;;;;;5059155;28;19957;-80
2021/11/17 08:08:24;;;;;;;;;;;;;;;;;;5058185;28;19912;-79
2021/11/17 08:10:50;;;;;;;;;;;;;;;;;;5058354;28;19966;-79
2021/11/17 08:13:15;;;;;;;;;;;;;;;;;;5054829;28;19917;-77
2021/11/17 08:15:40;;;;;;;;;;;;;;;;;;5053737;28;19916;-77
2021/11/17 08:18:06;;;;;;;;;;;;;;;;;;5053873;28;20359;-77
2021/11/17 08:20:31;;;;;;;;;;;;;;;;;;5052903;28;19912;-76
2021/11/17 08:22:58;;;;;;;;;;;;;;;;;;5053709;28;19913;-77
2021/11/17 08:25:25;;;;;;;;;;;;;;;;;;5053897;28;19912;-77
2021/11/17 08:27:50;;;;;;;;;;;;;;;;;;5054028;28;19912;-77
2021/11/17 08:30:17;;;;;;;;;;;;;;;;;;5053362;28;19919;-77
2021/11/17 08:32:43;;;;;;;;;;;;;;;;;;5052862;28;19966;-77
2021/11/17 08:35:10;;;;;;;;;;;;;;;;;;5053648;28;19917;-77
2021/11/17 08:37:36;;;;;;;;;;;;;;;;;;5053490;28;19947;-77
2021/11/17 08:40:03;;;;;;;;;;;;;;;;;;5053794;28;19912;-77
2021/11/17 08:42:28;;;;;;;;;;;;;;;;;;5055255;28;20270;-77
2021/11/17 08:44:54;;;;;;;;;;;;;;;;;;5054506;28;20030;-77
2021/11/17 08:47:19;;;;;;;;;;;;;;;;;;5055504;28;19920;-77
2021/11/17 08:49:45;;;;;;;;;;;;;;;;;;5055194;28;20377;-77
2021/11/17 08:52:11;;;;;;;;;;;;;;;;;;5053681;28;19913;-76
2021/11/17 08:54:37;;;;;;;;;;;;;;;;;;5053514;28;20023;-76
2021/11/17 08:57:03;;;;;;;;;;;;;;;;;;5053479;28;19916;-76
2021/11/17 08:59:31;;;;;;;;;;;;;;;;;;5052339;28;19908;-77
2021/11/17 09:01:57;;;;;;;;;;;;;;;;;;5054665;28;19913;-77
2021/11/17 09:04:23;;;;;;;;;;;;;;;;;;5053414;28;20417;-77
2021/11/17 09:06:48;;;;;;;;;;;;;;;;;;5055525;28;19913;-77
2021/11/17 09:09:14;;;;;;;;;;;;;;;;;;5054859;28;19919;-77
2021/11/17 09:11:40;;;;;;;;;;;;;;;;;;5053073;28;19916;-77
2021/11/17 09:14:06;;;;;;;;;;;;;;;;;;5053448;28;20058;-78
2021/11/17 09:16:33;;;;;;;;;;;;;;;;;;5053559;28;19917;-77
2021/11/17 09:18:59;;;;;;;;;;;;;;;;;;5052371;28;19912;-76
2021/11/17 09:21:25;;;;;;;;;;;;;;;;;;5053498;28;19917;-77
2021/11/17 09:23:51;;;;;;;;;;;;;;;;;;5053734;28;20436;-77
2021/11/17 09:26:21;;;;;;;;;;;;;;;;;;5055062;28;19959;-78
2021/11/17 09:28:46;;;;;;;;;;;;;;;;;;5054475;28;19943;-77
2021/11/17 09:31:13;;;;;;;;;;;;;;;;;;5054242;28;19936;-77
2021/11/17 09:33:39;;;;;;;;;;;;;;;;;;5052896;28;19917;-77
2021/11/17 09:36:06;;;;;;;;;;;;;;;;;;5055436;28;19946;-77
2021/11/17 09:38:31;;;;;;;;;;;;;;;;;;5054846;28;19955;-78
2021/11/17 09:41:08;;;;;;;;;;;;;;;;;;5054146;28;19912;-78
2021/11/17 09:43:37;;;;;;;;;;;;;;;;;;5056399;28;19916;-78
2021/11/17 09:46:03;;;;;;;;;;;;;;;;;;5057606;28;19919;-78
2021/11/17 09:48:31;;;;;;;;;;;;;;;;;;5057155;28;19912;-78
2021/11/17 09:51:02;;;;;;;;;;;;;;;;;;5056672;28;19913;-77
2021/11/17 09:53:30;;;;;;;;;;;;;;;;;;5058414;28;19920;-78
2021/11/17 09:56:00;;;;;;;;;;;;;;;;;;5058222;28;19917;-77
2021/11/17 09:58:34;;;;;;;;;;;;;;;;;;5055258;28;19952;-76
2021/11/17 10:01:08;;;;;;;;;;;;;;;;;;5057767;28;19913;-78
2021/11/17 10:03:36;;;;;;;;;;;;;;;;;;5057613;28;20371;-77
2021/11/17 10:06:29;;;;;;;;;;;;;;;;;;5056896;28;20385;-77
2021/11/17 10:14:09;;;;;;;;;;;;;;;;;;5059492;28;19912;-79
2021/11/17 10:16:34;;;;;;;;;;;;;;;;;;5060851;28;19917;-78
2021/11/17 10:19:26;;;;;;;;;;;;;;;;;;5058819;28;20014;-77
2021/11/17 10:22:01;;;;;;;;;;;;;;;;;;5054579;28;19919;-77
2021/11/17 10:24:38;;;;;;;;;;;;;;;;;;5055500;28;19912;-77
2021/11/17 10:27:04;;;;;;;;;;;;;;;;;;5056613;28;19920;-78
2021/11/17 10:29:31;;;;;;;;;;;;;;;;;;5060017;28;19913;-79
2021/11/17 10:31:59;;;;;;;;;;;;;;;;;;5063071;28;19920;-79
2021/11/17 10:34:28;;;;;;;;;;;;;;;;;;5062589;28;20369;-79
2021/11/17 10:36:53;;;;;;;;;;;;;;;;;;5059851;28;19917;-78
2021/11/17 10:39:34;;;;;;;;;;;;;;;;;;5063320;28;19920;-78
2021/11/17 10:42:35;;;;;;;;;;;;;;;;;;5068845;28;19916;-78
2021/11/17 10:45:00;;;;;;;;;;;;;;;;;;5023448;28;19953;-79
2021/11/17 10:47:28;;;;;;;;;;;;;;;;;;5055699;28;19912;-80
2021/11/17 10:49:56;;;;;;;;;;;;;;;;;;5062163;28;20309;-76
2021/11/17 10:52:24;;;;;;;;;;;;;;;;;;5056044;28;20370;-77
2021/11/17 10:54:50;;;;;;;;;;;;;;;;;;5055610;28;20366;-76
2021/11/17 10:57:21;;;;;;;;;;;;;;;;;;5056746;28;19952;-78
2021/11/17 10:59:47;;;;;;;;;;;;;;;;;;5057291;28;19919;-79
2021/11/17 11:02:12;;;;;;;;;;;;;;;;;;5056652;28;19912;-77
2021/11/17 11:04:56;;;;;;;;;;;;;;;;;;5054701;28;19919;-77
2021/11/17 11:07:30;;;;;;;;;;;;;;;;;;5054258;28;20266;-77
2021/11/17 11:09:58;;;;;;;;;;;;;;;;;;5054529;28;19963;-76
2021/11/17 11:12:25;;;;;;;;;;;;;;;;;;5055942;28;20366;-77
2021/11/17 11:14:53;;;;;;;;;;;;;;;;;;5054620;28;19919;-77
2021/11/17 11:17:24;;;;;;;;;;;;;;;;;;5054602;28;19924;-75
2021/11/17 11:19:50;;;;;;;;;;;;;;;;;;5053520;28;20336;-76
2021/11/17 11:22:20;;;;;;;;;;;;;;;;;;5047965;28;19916;-75
2021/11/17 11:24:47;;;;;;;;;;;;;;;;;;5043971;28;19949;-75
2021/11/17 11:27:15;;;;;;;;;;;;;;;;;;5044375;28;19927;-76
2021/11/17 11:29:43;;;;;;;;;;;;;;;;;;5055997;28;19913;-78
2021/11/17 11:32:15;;;;;;;;;;;;;;;;;;5055813;28;19987;-76
2021/11/17 11:34:47;;;;;;;;;;;;;;;;;;5054523;28;19920;-77
2021/11/17 11:37:33;;;;;;;;;;;;;;;;;;5053470;28;20002;-76
2021/11/17 11:40:04;;;;;;;;;;;;;;;;;;5054349;28;20359;-76
2021/11/17 11:42:32;;;;;;;;;;;;;;;;;;5054497;28;19925;-77
2021/11/17 11:44:59;;;;;;;;;;;;;;;;;;5054585;28;19927;-76
2021/11/17 11:47:25;;;;;;;;;;;;;;;;;;5055165;28;20534;-77
2021/11/17 11:49:50;;;;;;;;;;;;;;;;;;5053740;28;19913;-77
2021/11/17 11:52:19;;;;;;;;;;;;;;;;;;5054359;28;19912;-76
2021/11/17 11:54:53;;;;;;;;;;;;;;;;;;5050523;28;19919;-76
2021/11/17 11:57:19;;;;;;;;;;;;;;;;;;5054035;28;19991;-76
2021/11/17 11:59:44;;;;;;;;;;;;;;;;;;5052243;28;19917;-76
2021/11/17 12:02:09;;;;;;;;;;;;;;;;;;5054238;28;20350;-76
2021/11/17 12:04:40;;;;;;;;;;;;;;;;;;5054168;28;19921;-76
2021/11/17 12:07:08;;;;;;;;;;;;;;;;;;5053829;28;20240;-76
2021/11/17 12:09:37;;;;;;;;;;;;;;;;;;5054231;28;19912;-76
2021/11/17 12:12:16;;;;;;;;;;;;;;;;;;5052703;28;20388;-76
2021/11/17 12:14:45;;;;;;;;;;;;;;;;;;5053926;28;19913;-76
2021/11/17 12:17:10;;;;;;;;;;;;;;;;;;5052705;28;20247;-76
2021/11/17 12:19:38;;;;;;;;;;;;;;;;;;5054042;28;19966;-76
2021/11/17 12:22:06;;;;;;;;;;;;;;;;;;5052875;28;19912;-76
2021/11/17 12:24:34;;;;;;;;;;;;;;;;;;5053525;28;19978;-76
2021/11/17 12:27:02;;;;;;;;;;;;;;;;;;5053563;28;20441;-76
2021/11/17 12:29:42;;;;;;;;;;;;;;;;;;5053638;28;19912;-76
2021/11/17 12:32:11;;;;;;;;;;;;;;;;;;5053752;28;19912;-76
2021/11/17 12:34:54;;;;;;;;;;;;;;;;;;5053748;28;19912;-76
2021/11/17 12:37:22;;;;;;;;;;;;;;;;;;5053461;28;20354;-76
2021/11/17 12:39:48;;;;;;;;;;;;;;;;;;5053680;28;19913;-76
2021/11/17 12:42:14;;;;;;;;;;;;;;;;;;5053689;28;20350;-77
2021/11/17 12:44:44;;;;;;;;;;;;;;;;;;5053411;28;19920;-76
2021/11/17 12:47:16;;;;;;;;;;;;;;;;;;5053298;28;20315;-76
2021/11/17 12:49:43;;;;;;;;;;;;;;;;;;5052893;28;19912;-76
2021/11/17 12:52:14;;;;;;;;;;;;;;;;;;5053621;28;19917;-77
2021/11/17 12:54:51;;;;;;;;;;;;;;;;;;5053492;28;20298;-77
2021/11/17 12:57:21;;;;;;;;;;;;;;;;;;5053285;28;19963;-77
2021/11/17 12:59:52;;;;;;;;;;;;;;;;;;5052951;28;20003;-76
2021/11/17 13:02:20;;;;;;;;;;;;;;;;;;5054046;28;19913;-77
2021/11/17 13:04:47;;;;;;;;;;;;;;;;;;5053405;28;19948;-77
2021/11/17 13:07:13;;;;;;;;;;;;;;;;;;5057907;28;19913;-80
2021/11/17 13:09:42;;;;;;;;;;;;;;;;;;5059660;28;20102;-80
2021/11/17 13:12:08;;;;;;;;;;;;;;;;;;5059220;28;20000;-78
2021/11/17 13:14:36;;;;;;;;;;;;;;;;;;5061431;28;19960;-81
2021/11/17 13:17:04;;;;;;;;;;;;;;;;;;5060751;28;19917;-81
2021/11/17 13:19:34;;;;;;;;;;;;;;;;;;5062078;28;20018;-81
2021/11/17 13:22:03;;;;;;;;;;;;;;;;;;5042718;28;19916;-81
2021/11/17 13:24:31;;;;;;;;;;;;;;;;;;5043305;28;19919;-81
2021/11/17 13:27:07;;;;;;;;;;;;;;;;;;5042956;28;20354;-80
2021/11/17 13:29:47;;;;;;;;;;;;;;;;;;5049182;28;19913;-81
2021/11/17 13:32:13;;;;;;;;;;;;;;;;;;5084170;28;20007;-81
2021/11/17 13:34:39;;;;;;;;;;;;;;;;;;5083599;28;19963;-81
2021/11/17 13:37:23;;;;;;;;;;;;;;;;;;5083009;28;19962;-80
2021/11/17 13:39:56;;;;;;;;;;;;;;;;;;5081947;28;19908;-81
2021/11/17 13:42:23;;;;;;;;;;;;;;;;;;5076251;28;19913;-81
2021/11/17 13:44:49;;;;;;;;;;;;;;;;;;5037683;28;19916;-81
2021/11/17 13:47:15;;;;;;;;;;;;;;;;;;5056647;28;20407;-81
2021/11/17 13:49:42;;;;;;;;;;;;;;;;;;5054915;28;19912;-81
2021/11/17 13:52:09;;;;;;;;;;;;;;;;;;5049326;28;19920;-81
2021/11/17 13:54:34;;;;;;;;;;;;;;;;;;5054336;28;19912;-81
2021/11/17 13:57:01;;;;;;;;;;;;;;;;;;5063738;28;20342;-82
2021/11/17 13:59:26;;;;;;;;;;;;;;;;;;5060663;28;19912;-81
2021/11/17 14:01:55;;;;;;;;;;;;;;;;;;5059214;28;20000;-80
2021/11/17 14:04:20;;;;;;;;;;;;;;;;;;5059254;28;19913;-80
2021/11/17 14:06:46;;;;;;;;;;;;;;;;;;5060109;28;20421;-79
2021/11/17 14:09:11;;;;;;;;;;;;;;;;;;5058812;28;19912;-80
2021/11/17 14:11:36;;;;;;;;;;;;;;;;;;5057392;28;19913;-79
2021/11/17 14:14:02;;;;;;;;;;;;;;;;;;5059698;28;19913;-80
2021/11/17 14:16:27;;;;;;;;;;;;;;;;;;5058323;28;19955;-80
2021/11/17 14:18:53;;;;;;;;;;;;;;;;;;5056778;28;20274;-80
2021/11/17 14:21:19;;;;;;;;;;;;;;;;;;5058390;28;19912;-80
2021/11/17 14:23:44;;;;;;;;;;;;;;;;;;5058375;28;19920;-80
2021/11/17 14:26:14;;;;;;;;;;;;;;;;;;5057951;28;19999;-80
2021/11/17 14:28:42;;;;;;;;;;;;;;;;;;5057553;28;19917;-80
2021/11/17 14:31:24;;;;;;;;;;;;;;;;;;5039520;28;19913;-81
2021/11/17 14:33:56;;;;;;;;;;;;;;;;;;5038083;28;19920;-80
2021/11/17 14:36:24;;;;;;;;;;;;;;;;;;5047514;28;19956;-80
2021/11/17 14:38:49;;;;;;;;;;;;;;;;;;5058105;28;19917;-81
2021/11/17 14:41:15;;;;;;;;;;;;;;;;;;5056894;28;19966;-81
2021/11/17 14:43:40;;;;;;;;;;;;;;;;;;5058110;28;19916;-81
2021/11/17 14:46:05;;;;;;;;;;;;;;;;;;5057436;28;19912;-80
2021/11/17 14:48:32;;;;;;;;;;;;;;;;;;5057809;28;19912;-80
2021/11/17 14:50:58;;;;;;;;;;;;;;;;;;5058540;28;20347;-80
2021/11/17 14:53:24;;;;;;;;;;;;;;;;;;5057902;28;19912;-80
2021/11/17 14:55:49;;;;;;;;;;;;;;;;;;5057351;28;20350;-80
2021/11/17 14:58:14;;;;;;;;;;;;;;;;;;5056309;28;20382;-80
2021/11/17 15:00:45;;;;;;;;;;;;;;;;;;5057582;28;19912;-80
2021/11/17 15:03:11;;;;;;;;;;;;;;;;;;5058771;28;20348;-80
2021/11/17 15:05:36;;;;;;;;;;;;;;;;;;5054992;28;19909;-80
2021/11/17 15:08:02;;;;;;;;;;;;;;;;;;5037928;28;19920;-80
2021/11/17 15:10:27;;;;;;;;;;;;;;;;;;5036620;28;20007;-80
2021/11/17 15:12:53;;;;;;;;;;;;;;;;;;5037597;28;19913;-80
2021/11/17 15:15:26;;;;;;;;;;;;;;;;;;5036782;28;20728;-82
2021/11/17 15:17:52;;;;;;;;;;;;;;;;;;5041574;28;20379;-81
2021/11/17 15:20:18;;;;;;;;;;;;;;;;;;5039563;28;19913;-81
2021/11/17 15:22:44;;;;;;;;;;;;;;;;;;5040933;28;19912;-80
2021/11/17 15:25:14;;;;;;;;;;;;;;;;;;5039625;28;20329;-80
2021/11/17 15:27:44;;;;;;;;;;;;;;;;;;5040122;28;19940;-81
2021/11/17 15:30:20;;;;;;;;;;;;;;;;;;5039232;28;19927;-80
2021/11/17 15:32:45;;;;;;;;;;;;;;;;;;5039726;28;19936;-80
2021/11/17 15:35:11;;;;;;;;;;;;;;;;;;5038846;28;19920;-80
2021/11/17 15:37:37;;;;;;;;;;;;;;;;;;5043221;28;19924;-80
2021/11/17 15:40:07;;;;;;;;;;;;;;;;;;5077964;28;20277;-80
2021/11/17 15:42:33;;;;;;;;;;;;;;;;;;5078348;28;19913;-81
2021/11/17 15:44:58;;;;;;;;;;;;;;;;;;5077792;28;19923;-80
2021/11/17 15:47:26;;;;;;;;;;;;;;;;;;5077892;28;19912;-80
2021/11/17 15:49:52;;;;;;;;;;;;;;;;;;5077703;28;19937;-80
2021/11/17 15:52:17;;;;;;;;;;;;;;;;;;5077637;28;20010;-80
2021/11/17 15:54:42;;;;;;;;;;;;;;;;;;5077325;28;19912;-83
2021/11/17 15:57:08;;;;;;;;;;;;;;;;;;5040244;28;19924;-78
2021/11/17 15:59:33;;;;;;;;;;;;;;;;;;5025620;28;19940;-81
2021/11/17 16:01:58;;;;;;;;;;;;;;;;;;5049245;28;19916;-77
2021/11/17 16:04:24;;;;;;;;;;;;;;;;;;5034578;28;19913;-77
2021/11/17 16:06:55;;;;;;;;;;;;;;;;;;5037323;28;19924;-77
2021/11/17 16:09:21;;;;;;;;;;;;;;;;;;5041298;28;19913;-77
2021/11/17 16:11:47;;;;;;;;;;;;;;;;;;5047146;28;20272;-76
2021/11/17 16:14:12;;;;;;;;;;;;;;;;;;5042694;28;19920;-76
2021/11/17 16:16:38;;;;;;;;;;;;;;;;;;5041612;28;19925;-77
2021/11/17 16:19:04;;;;;;;;;;;;;;;;;;5042884;28;20264;-77
2021/11/17 16:21:30;;;;;;;;;;;;;;;;;;5043968;28;19945;-79
2021/11/17 16:26:40;;;;;;;;;;;;;;;;;;5042081;28;19917;-78
2021/11/17 16:29:09;;;;;;;;;;;;;;;;;;5044220;28;19921;-79
2021/11/17 16:31:34;;;;;;;;;;;;;;;;;;5041827;28;19913;-77
2021/11/17 16:34:00;;;;;;;;;;;;;;;;;;5042925;28;20297;-77
2021/11/17 16:36:25;;;;;;;;;;;;;;;;;;5039405;28;19920;-79
2021/11/17 16:38:50;;;;;;;;;;;;;;;;;;5044018;28;19912;-80
2021/11/17 16:41:17;;;;;;;;;;;;;;;;;;5046999;28;19912;-78
2021/11/17 16:43:43;;;;;;;;;;;;;;;;;;5034014;28;19967;-78
2021/11/17 16:46:09;;;;;;;;;;;;;;;;;;5046103;28;19974;-80
2021/11/17 16:48:34;;;;;;;;;;;;;;;;;;5046834;28;20391;-78
2021/11/17 16:51:00;;;;;;;;;;;;;;;;;;5047799;28;19936;-80
2021/11/17 16:53:25;;;;;;;;;;;;;;;;;;5059792;28;20301;-80
2021/11/17 16:55:51;;;;;;;;;;;;;;;;;;5063715;28;19912;-79
2021/11/17 16:58:17;;;;;;;;;;;;;;;;;;5062165;28;19916;-78
2021/11/17 17:00:48;;;;;;;;;;;;;;;;;;5060178;28;19912;-77
2021/11/17 17:03:14;;;;;;;;;;;;;;;;;;5056774;28;20395;-78
2021/11/17 17:05:41;;;;;;;;;;;;;;;;;;5043084;28;19916;-77
2021/11/17 17:08:06;;;;;;;;;;;;;;;;;;5044933;28;20006;-78
2021/11/17 17:10:32;;;;;;;;;;;;;;;;;;5047745;28;19913;-80
2021/11/17 17:12:57;;;;;;;;;;;;;;;;;;5040654;28;19951;-80
2021/11/17 17:15:24;;;;;;;;;;;;;;;;;;5059104;28;19935;-78
2021/11/17 17:17:50;;;;;;;;;;;;;;;;;;5061355;28;19955;-78
2021/11/17 17:20:17;;;;;;;;;;;;;;;;;;5049675;28;20364;-78
2021/11/17 17:22:43;;;;;;;;;;;;;;;;;;5039105;28;20003;-79
2021/11/17 17:25:09;;;;;;;;;;;;;;;;;;5038241;28;19917;-77
2021/11/17 17:27:35;;;;;;;;;;;;;;;;;;5037357;28;19959;-77
2021/11/17 17:30:01;;;;;;;;;;;;;;;;;;5046985;28;19920;-74
2021/11/17 17:32:26;;;;;;;;;;;;;;;;;;5053601;28;19913;-75
2021/11/17 17:34:52;;;;;;;;;;;;;;;;;;5056594;28;19999;-75
2021/11/17 17:37:18;;;;;;;;;;;;;;;;;;5055606;28;19920;-76
2021/11/17 17:39:43;;;;;;;;;;;;;;;;;;5056430;28;20405;-75
2021/11/17 17:42:12;;;;;;;;;;;;;;;;;;5056747;28;19927;-76
2021/11/17 17:44:39;;;;;;;;;;;;;;;;;;5056660;28;19916;-75
2021/11/17 17:47:04;;;;;;;;;;;;;;;;;;5056874;28;20388;-74
2021/11/17 17:49:30;;;;;;;;;;;;;;;;;;5056354;28;19993;-74
2021/11/17 17:51:55;;;;;;;;;;;;;;;;;;5055404;28;19913;-74
2021/11/17 17:54:21;;;;;;;;;;;;;;;;;;5056498;28;20286;-76
2021/11/17 17:56:48;;;;;;;;;;;;;;;;;;5056593;28;19916;-77
2021/11/17 17:59:13;;;;;;;;;;;;;;;;;;5056509;28;19982;-76
2021/11/17 18:01:39;;;;;;;;;;;;;;;;;;5056529;28;20385;-76
2021/11/17 18:04:04;;;;;;;;;;;;;;;;;;5055359;28;19919;-75
2021/11/17 18:06:29;;;;;;;;;;;;;;;;;;5054407;28;19919;-76
2021/11/17 18:08:55;;;;;;;;;;;;;;;;;;5056179;28;19913;-76
2021/11/17 18:11:21;;;;;;;;;;;;;;;;;;5055289;28;19975;-76
2021/11/17 18:13:46;;;;;;;;;;;;;;;;;;5057086;28;19913;-79
2021/11/17 18:16:12;;;;;;;;;;;;;;;;;;5057982;28;19920;-77
2021/11/17 18:18:37;;;;;;;;;;;;;;;;;;5057645;28;19912;-77
2021/11/17 18:21:05;;;;;;;;;;;;;;;;;;5058071;28;20018;-78
2021/11/17 18:23:30;;;;;;;;;;;;;;;;;;5058159;28;20269;-78
2021/11/17 18:25:58;;;;;;;;;;;;;;;;;;5058328;28;19995;-77
2021/11/17 18:28:24;;;;;;;;;;;;;;;;;;5057791;28;20011;-78
2021/11/17 18:30:49;;;;;;;;;;;;;;;;;;5057844;28;20413;-78
2021/11/17 18:33:15;;;;;;;;;;;;;;;;;;5058282;28;19917;-77
2021/11/17 18:35:40;;;;;;;;;;;;;;;;;;5057034;28;19983;-77
2021/11/17 18:38:07;;;;;;;;;;;;;;;;;;5057831;28;19971;-77
2021/11/17 18:40:34;;;;;;;;;;;;;;;;;;5057238;28;19912;-77
2021/11/17 18:43:00;;;;;;;;;;;;;;;;;;5056115;28;19916;-77
2021/11/17 18:45:28;;;;;;;;;;;;;;;;;;5057473;28;19924;-77
2021/11/17 18:47:54;;;;;;;;;;;;;;;;;;5057751;28;19919;-77
2021/11/17 18:50:20;;;;;;;;;;;;;;;;;;5055908;28;19917;-77
2021/11/17 18:52:47;;;;;;;;;;;;;;;;;;5055532;28;20062;-77
2021/11/17 18:55:13;;;;;;;;;;;;;;;;;;5055839;28;19919;-76
2021/11/17 18:57:39;;;;;;;;;;;;;;;;;;5055439;28;19916;-76
2021/11/17 19:00:08;;;;;;;;;;;;;;;;;;5055679;28;19966;-77
2021/11/17 19:02:36;;;;;;;;;;;;;;;;;;5046300;28;20008;-77
2021/11/17 19:05:02;;;;;;;;;;;;;;;;;;5037380;28;20314;-78
2021/11/17 19:07:28;;;;;;;;;;;;;;;;;;5040905;28;20370;-77
2021/11/17 19:09:53;;;;;;;;;;;;;;;;;;5057260;28;19919;-78
2021/11/17 19:12:18;;;;;;;;;;;;;;;;;;5057420;28;19912;-77
2021/11/17 19:14:44;;;;;;;;;;;;;;;;;;5056849;28;19919;-77
2021/11/17 19:17:10;;;;;;;;;;;;;;;;;;5057038;28;19923;-78
2021/11/17 19:19:36;;;;;;;;;;;;;;;;;;5056584;28;19912;-77
2021/11/17 19:22:03;;;;;;;;;;;;;;;;;;5049319;28;19920;-78
2021/11/17 19:24:29;;;;;;;;;;;;;;;;;;5045381;28;19967;-77
2021/11/17 19:26:55;;;;;;;;;;;;;;;;;;5043194;28;19913;-77
2021/11/17 19:29:21;;;;;;;;;;;;;;;;;;5042728;28;19920;-77
2021/11/17 19:31:47;;;;;;;;;;;;;;;;;;5045613;28;19922;-77
2021/11/17 19:34:12;;;;;;;;;;;;;;;;;;5045526;28;20293;-77